createdAt,value
2023-05-14T00:01:55.407Z,101821.97
2023-05-14T00:04:00.113Z,101818.28
2023-05-14T00:06:03.802Z,101813.75
2023-05-14T00:08:07.652Z,101824.22
2023-05-14T00:10:12.843Z,101819.84
2023-05-14T00:12:16.190Z,101819.84
2023-05-14T00:14:19.721Z,101825.16
2023-05-14T00:16:23.353Z,101818.91
2023-05-14T00:18:26.789Z,101803.91
2023-05-14T00:20:30.325Z,101813.59
2023-05-14T00:22:33.926Z,101802.97
2023-05-14T00:24:37.765Z,101793.09
2023-05-14T00:26:42.577Z,101793.19
2023-05-14T00:28:45.912Z,101794.91
2023-05-14T00:30:49.378Z,101791.38
2023-05-14T00:32:53.077Z,101787.88
2023-05-14T00:34:56.785Z,101783.41
2023-05-14T00:37:00.799Z,101782.66
2023-05-14T00:39:04.427Z,101772.09
2023-05-14T00:41:07.820Z,101775.69
2023-05-14T00:43:12.953Z,101775.69
2023-05-14T00:45:16.721Z,101781.84
2023-05-14T00:47:21.111Z,101775.69
2023-05-14T00:49:24.968Z,101773.97
2023-05-14T00:51:28.610Z,101768.66
2023-05-14T00:53:32.449Z,101765.25
2023-05-14T00:55:35.947Z,101762.59
2023-05-14T00:57:39.301Z,101753.75
2023-05-14T00:59:44.307Z,101751.97
2023-05-14T01:01:47.528Z,101752.03
2023-05-14T01:03:53.532Z,101756.50
2023-05-14T01:06:02.840Z,101756.50
2023-05-14T01:08:15.111Z,101748.53
2023-05-14T01:10:24.617Z,101748.53
2023-05-14T01:12:35.765Z,101745.78
2023-05-14T01:14:42.332Z,101751.09
2023-05-14T01:16:47.416Z,101751.19
2023-05-14T01:18:52.831Z,101744.06
2023-05-14T01:20:56.284Z,101740.56
2023-05-14T01:23:01.283Z,101744.00
2023-05-14T01:25:05.062Z,101736.78
2023-05-14T01:27:15.196Z,101734.91
2023-05-14T01:29:23.229Z,101731.38
2023-05-14T01:31:29.808Z,101728.81
2023-05-14T01:33:36.126Z,101720.00
2023-05-14T01:35:40.647Z,101714.84
2023-05-14T01:37:46.320Z,101716.66
2023-05-14T01:39:53.797Z,101716.72
2023-05-14T01:41:57.587Z,101709.03
2023-05-14T01:44:00.997Z,101705.69
2023-05-14T01:46:05.069Z,101704.06
2023-05-14T01:48:09.394Z,101701.50
2023-05-14T01:50:13.210Z,101698.13
2023-05-14T01:52:16.799Z,101702.88
2023-05-14T01:54:20.278Z,101692.25
2023-05-14T01:56:25.929Z,101698.50
2023-05-14T01:58:29.733Z,101703.81
2023-05-14T02:00:33.156Z,101692.25
2023-05-14T02:02:36.656Z,101690.53
2023-05-14T02:04:40.124Z,101690.53
2023-05-14T02:06:43.845Z,101688.53
2023-05-14T02:08:47.440Z,101688.47
2023-05-14T02:10:50.907Z,101695.47
2023-05-14T02:12:55.837Z,101691.88
2023-05-14T02:14:59.232Z,101692.72
2023-05-14T02:17:04.787Z,101687.41
2023-05-14T02:19:08.234Z,101683.91
2023-05-14T02:21:11.727Z,101681.25
2023-05-14T02:23:15.317Z,101689.13
2023-05-14T02:25:19.304Z,101687.38
2023-05-14T02:27:23.149Z,101684.72
2023-05-14T02:29:28.098Z,101681.19
2023-05-14T02:31:31.438Z,101682.06
2023-05-14T02:33:34.840Z,101685.56
2023-05-14T02:35:38.161Z,101685.56
2023-05-14T02:37:42.027Z,101678.69
2023-05-14T02:39:45.491Z,101679.72
2023-05-14T02:41:48.892Z,101686.75
2023-05-14T02:43:53.816Z,101686.84
2023-05-14T02:45:59.295Z,101682.28
2023-05-14T02:48:02.879Z,101680.66
2023-05-14T02:50:08.612Z,101676.38
2023-05-14T02:52:12.024Z,101678.38
2023-05-14T02:54:16.566Z,101672.34
2023-05-14T02:56:20.025Z,101677.84
2023-05-14T02:58:28.321Z,101670.91
2023-05-14T03:00:32.413Z,101672.78
2023-05-14T03:02:37.748Z,101670.28
2023-05-14T03:04:41.645Z,101673.03
2023-05-14T03:06:45.018Z,101669.63
2023-05-14T03:08:48.448Z,101672.34
2023-05-14T03:10:51.862Z,101675.00
2023-05-14T03:12:55.489Z,101678.69
2023-05-14T03:14:59.024Z,101675.25
2023-05-14T03:17:02.877Z,101665.94
2023-05-14T03:19:07.947Z,101661.81
2023-05-14T03:21:11.215Z,101671.63
2023-05-14T03:23:15.062Z,101671.63
2023-05-14T03:25:18.847Z,101671.63
2023-05-14T03:27:22.205Z,101669.06
2023-05-14T03:29:25.577Z,101666.50
2023-05-14T03:31:29.200Z,101668.38
2023-05-14T03:33:33.188Z,101668.38
2023-05-14T03:35:38.008Z,101677.28
2023-05-14T03:37:41.269Z,101675.56
2023-05-14T03:39:44.646Z,101678.41
2023-05-14T03:41:48.277Z,101674.97
2023-05-14T03:43:51.593Z,101668.91
2023-05-14T03:45:54.989Z,101670.75
2023-05-14T03:47:59.771Z,101663.72
2023-05-14T03:50:03.671Z,101658.59
2023-05-14T03:52:09.247Z,101656.97
2023-05-14T03:54:12.342Z,101658.75
2023-05-14T03:56:16.190Z,101654.31
2023-05-14T03:58:19.570Z,101649.88
2023-05-14T04:00:23.413Z,101654.22
2023-05-14T04:02:28.101Z,101642.75
2023-05-14T04:04:32.265Z,101642.84
2023-05-14T04:06:35.706Z,101622.56
2023-05-14T04:08:40.411Z,101640.44
2023-05-14T04:10:44.697Z,101627.06
2023-05-14T04:12:48.123Z,101629.69
2023-05-14T04:14:51.841Z,101626.00
2023-05-14T04:16:55.253Z,101620.53
2023-05-14T04:18:58.762Z,101618.63
2023-05-14T04:21:02.171Z,101611.53
2023-05-14T04:23:05.571Z,101614.09
2023-05-14T04:25:11.058Z,101614.94
2023-05-14T04:27:21.061Z,101615.84
2023-05-14T04:29:24.465Z,101621.47
2023-05-14T04:31:27.911Z,101611.03
2023-05-14T04:33:31.499Z,101605.72
2023-05-14T04:35:34.837Z,101605.00
2023-05-14T04:37:38.232Z,101607.03
2023-05-14T04:39:41.631Z,101608.84
2023-05-14T04:41:46.365Z,101605.28
2023-05-14T04:43:51.707Z,101605.59
2023-05-14T04:45:55.212Z,101616.09
2023-05-14T04:47:58.713Z,101597.47
2023-05-14T04:50:02.274Z,101597.41
2023-05-14T04:52:06.102Z,101599.97
2023-05-14T04:54:09.448Z,101604.25
2023-05-14T04:56:12.912Z,101604.84
2023-05-14T04:58:17.656Z,101594.16
2023-05-14T05:00:22.367Z,101588.78
2023-05-14T05:02:26.190Z,101591.53
2023-05-14T05:04:29.576Z,101589.63
2023-05-14T05:06:32.960Z,101588.50
2023-05-14T05:08:36.373Z,101594.66
2023-05-14T05:10:39.894Z,101591.94
2023-05-14T05:12:43.414Z,101583.81
2023-05-14T05:14:48.533Z,101593.41
2023-05-14T05:16:52.264Z,101594.06
2023-05-14T05:18:55.691Z,101591.28
2023-05-14T05:20:59.465Z,101591.84
2023-05-14T05:23:02.846Z,101584.69
2023-05-14T05:25:08.206Z,101592.53
2023-05-14T05:27:11.474Z,101585.38
2023-05-14T05:29:14.995Z,101580.91
2023-05-14T05:31:20.229Z,101575.59
2023-05-14T05:33:23.834Z,101572.00
2023-05-14T05:35:27.561Z,101574.56
2023-05-14T05:37:31.957Z,101578.84
2023-05-14T05:39:36.034Z,101581.31
2023-05-14T05:41:39.397Z,101573.38
2023-05-14T05:43:42.733Z,101572.66
2023-05-14T05:45:46.780Z,101562.75
2023-05-14T05:47:51.797Z,101553.75
2023-05-14T05:49:55.188Z,101552.63
2023-05-14T05:51:58.861Z,101553.31
2023-05-14T05:54:02.399Z,101555.81
2023-05-14T05:56:06.479Z,101548.59
2023-05-14T05:58:10.000Z,101556.03
2023-05-14T06:00:14.433Z,101551.00
2023-05-14T06:02:18.266Z,101556.31
2023-05-14T06:04:23.048Z,101555.38
2023-05-14T06:06:26.292Z,101553.31
2023-05-14T06:08:29.578Z,101556.56
2023-05-14T06:10:33.136Z,101557.25
2023-05-14T06:12:36.627Z,101540.28
2023-05-14T06:14:39.914Z,101549.00
2023-05-14T06:16:43.334Z,101551.50
2023-05-14T06:18:47.222Z,101560.03
2023-05-14T06:20:51.901Z,101557.38
2023-05-14T06:22:55.463Z,101550.53
2023-05-14T06:24:58.922Z,101551.22
2023-05-14T06:27:02.323Z,101561.66
2023-05-14T06:29:06.024Z,101551.72
2023-05-14T06:31:09.647Z,101542.81
2023-05-14T06:33:15.751Z,101541.94
2023-05-14T06:35:19.727Z,101551.53
2023-05-14T06:37:24.409Z,101546.03
2023-05-14T06:39:27.802Z,101542.25
2023-05-14T06:41:31.465Z,101540.28
2023-05-14T06:43:34.954Z,101537.34
2023-05-14T06:45:38.563Z,101543.22
2023-05-14T06:47:42.333Z,101537.69
2023-05-14T06:49:46.167Z,101532.09
2023-05-14T06:51:49.655Z,101527.53
2023-05-14T06:53:54.885Z,101529.16
2023-05-14T06:55:58.554Z,101525.44
2023-05-14T06:58:02.176Z,101516.34
2023-05-14T07:00:06.890Z,101512.38
2023-05-14T07:02:10.814Z,101521.69
2023-05-14T07:04:14.258Z,101517.00
2023-05-14T07:06:17.704Z,101518.53
2023-05-14T07:08:21.108Z,101523.56
2023-05-14T07:10:26.470Z,101515.41
2023-05-14T07:12:30.170Z,101519.69
2023-05-14T07:14:35.205Z,101519.38
2023-05-14T07:16:38.833Z,101521.88
2023-05-14T07:18:42.243Z,101519.94
2023-05-14T07:20:45.546Z,101525.06
2023-05-14T07:22:48.827Z,101521.47
2023-05-14T07:24:52.078Z,101525.84
2023-05-14T07:26:57.359Z,101530.13
2023-05-14T07:29:00.625Z,101522.97
2023-05-14T07:31:05.185Z,101521.09
2023-05-14T07:33:08.708Z,101512.13
2023-05-14T07:35:13.260Z,101513.84
2023-05-14T07:37:17.026Z,101526.22
2023-05-14T07:39:20.374Z,101524.50
2023-05-14T07:41:23.975Z,101514.63
2023-05-14T07:43:29.028Z,101518.03
2023-05-14T07:45:32.510Z,101517.94
2023-05-14T07:47:35.945Z,101521.16
2023-05-14T07:49:39.232Z,101518.19
2023-05-14T07:51:42.592Z,101521.25
2023-05-14T07:53:45.871Z,101515.31
2023-05-14T07:55:50.671Z,101529.75
2023-05-14T07:57:54.058Z,101528.09
2023-05-14T07:59:59.099Z,101524.22
2023-05-14T08:02:02.601Z,101521.97
2023-05-14T08:04:06.378Z,101522.41
2023-05-14T08:06:10.323Z,101523.06
2023-05-14T08:08:13.908Z,101521.38
2023-05-14T08:10:17.485Z,101533.09
2023-05-14T08:12:20.917Z,101524.13
2023-05-14T08:14:24.307Z,101514.53
2023-05-14T08:16:29.601Z,101512.59
2023-05-14T08:18:33.625Z,101517.41
2023-05-14T08:20:37.927Z,101518.16
2023-05-14T08:22:41.860Z,101516.25
2023-05-14T08:24:46.989Z,101508.44
2023-05-14T08:26:51.685Z,101512.81
2023-05-14T08:28:56.248Z,101519.31
2023-05-14T08:31:01.693Z,101514.94
2023-05-14T08:33:08.448Z,101517.63
2023-05-14T08:35:13.081Z,101517.72
2023-05-14T08:37:17.457Z,101512.63
2023-05-14T08:39:21.932Z,101509.00
2023-05-14T08:41:26.977Z,101510.69
2023-05-14T08:43:39.847Z,101505.03
2023-05-14T08:45:45.347Z,101509.91
2023-05-14T08:47:51.510Z,101510.78
2023-05-14T08:50:04.919Z,101503.75
2023-05-14T08:52:09.843Z,101506.94
2023-05-14T08:54:17.585Z,101510.22
2023-05-14T08:56:22.792Z,101512.16
2023-05-14T08:58:30.130Z,101514.53
2023-05-14T09:00:35.059Z,101516.25
2023-05-14T09:02:41.076Z,101523.31
2023-05-14T09:04:45.429Z,101521.78
2023-05-14T09:06:52.668Z,101520.09
2023-05-14T09:08:58.119Z,101515.72
2023-05-14T09:11:02.793Z,101513.28
2023-05-14T09:13:08.062Z,101510.06
2023-05-14T09:15:13.177Z,101514.75
2023-05-14T09:17:18.979Z,101516.56
2023-05-14T09:19:23.532Z,101513.91
2023-05-14T09:21:28.608Z,101509.53
2023-05-14T09:23:35.847Z,101508.78
2023-05-14T09:25:40.521Z,101504.19
2023-05-14T09:27:50.617Z,101504.94
2023-05-14T09:29:55.112Z,101500.34
2023-05-14T09:32:02.798Z,101508.56
2023-05-14T09:34:07.958Z,101499.31
2023-05-14T09:36:13.571Z,101494.38
2023-05-14T09:38:18.623Z,101503.00
2023-05-14T09:40:27.787Z,101497.88
2023-05-14T09:42:33.535Z,101491.78
2023-05-14T09:44:39.332Z,101499.97
2023-05-14T09:46:45.400Z,101491.22
2023-05-14T09:48:50.032Z,101482.84
2023-05-14T09:50:54.526Z,101486.13
2023-05-14T09:53:01.568Z,101479.81
2023-05-14T09:55:08.300Z,101482.19
2023-05-14T09:57:14.551Z,101487.47
2023-05-14T09:59:19.367Z,101487.00
2023-05-14T10:01:27.388Z,101479.50
2023-05-14T10:03:32.956Z,101486.31
2023-05-14T10:05:43.656Z,101493.00
2023-05-14T10:07:51.287Z,101499.19
2023-05-14T10:10:01.601Z,101500.38
2023-05-14T10:12:07.374Z,101500.88
2023-05-14T10:14:19.666Z,101497.56
2023-05-14T10:16:29.976Z,101497.63
2023-05-14T10:18:43.684Z,101499.91
2023-05-14T10:20:51.039Z,101499.63
2023-05-14T10:22:55.823Z,101490.38
2023-05-14T10:25:01.378Z,101499.19
2023-05-14T10:27:09.225Z,101501.47
2023-05-14T10:29:16.789Z,101499.72
2023-05-14T10:31:25.306Z,101500.97
2023-05-14T10:33:30.255Z,101498.44
2023-05-14T10:35:53.302Z,101500.41
2023-05-14T10:37:59.702Z,101503.22
2023-05-14T10:40:06.616Z,101504.16
2023-05-14T10:42:19.874Z,101505.56
2023-05-14T10:44:26.788Z,101501.53
2023-05-14T10:46:32.094Z,101498.00
2023-05-14T10:48:40.025Z,101498.31
2023-05-14T10:50:45.173Z,101496.19
2023-05-14T10:52:50.654Z,101498.44
2023-05-14T10:54:57.306Z,101504.28
2023-05-14T10:57:11.271Z,101497.25
2023-05-14T10:59:18.006Z,101495.53
2023-05-14T11:01:26.433Z,101496.84
2023-05-14T11:03:35.192Z,101492.78
2023-05-14T11:05:43.052Z,101497.59
2023-05-14T11:07:51.372Z,101500.66
2023-05-14T11:09:59.436Z,101504.63
2023-05-14T11:12:04.311Z,101494.19
2023-05-14T11:14:10.175Z,101498.13
2023-05-14T11:16:23.427Z,101492.78
2023-05-14T11:18:31.916Z,101500.03
2023-05-14T11:20:38.148Z,101498.03
2023-05-14T11:22:45.012Z,101503.91
2023-05-14T11:24:49.808Z,101501.72
2023-05-14T11:26:56.046Z,101510.28
2023-05-14T11:29:00.758Z,101504.81
2023-05-14T11:31:05.981Z,101500.56
2023-05-14T11:33:10.767Z,101504.28
2023-05-14T11:35:17.011Z,101515.63
2023-05-14T11:37:21.325Z,101523.16
2023-05-14T11:39:25.930Z,101528.25
2023-05-14T11:41:32.099Z,101524.22
2023-05-14T11:43:38.597Z,101525.13
2023-05-14T11:45:43.289Z,101534.75
2023-05-14T11:47:48.244Z,101536.22
2023-05-14T11:49:53.228Z,101536.06
2023-05-14T11:52:03.195Z,101540.25
2023-05-14T11:54:07.661Z,101548.59
2023-05-14T11:56:12.270Z,101549.84
2023-05-14T11:58:19.134Z,101541.03
2023-05-14T12:00:24.986Z,101544.44
2023-05-14T12:02:30.217Z,101531.81
2023-05-14T12:04:35.527Z,101543.97
2023-05-14T12:06:40.724Z,101542.16
2023-05-14T12:08:46.468Z,101542.16
2023-05-14T12:10:50.841Z,101543.00
2023-05-14T12:12:54.724Z,101541.19
2023-05-14T12:15:02.074Z,101539.09
2023-05-14T12:17:14.369Z,101541.03
2023-05-14T12:19:20.292Z,101537.00
2023-05-14T12:21:24.580Z,101544.41
2023-05-14T12:23:29.414Z,101543.34
2023-05-14T12:25:34.771Z,101539.16
2023-05-14T12:27:40.985Z,101550.47
2023-05-14T12:29:45.836Z,101543.06
2023-05-14T12:31:51.655Z,101537.31
2023-05-14T12:33:58.277Z,101549.81
2023-05-14T12:36:20.664Z,101547.88
2023-05-14T12:38:26.483Z,101544.22
2023-05-14T12:40:31.043Z,101539.44
2023-05-14T12:42:40.530Z,101537.75
2023-05-14T12:44:46.232Z,101543.91
2023-05-14T12:46:51.137Z,101545.19
2023-05-14T12:48:55.662Z,101545.59
2023-05-14T12:51:00.393Z,101548.75
2023-05-14T12:53:04.873Z,101549.06
2023-05-14T12:55:11.344Z,101548.53
2023-05-14T12:57:16.562Z,101550.31
2023-05-14T12:59:22.019Z,101553.84
2023-05-14T13:01:28.410Z,101550.97
2023-05-14T13:03:33.138Z,101553.63
2023-05-14T13:05:38.104Z,101561.94
2023-05-14T13:07:45.834Z,101547.94
2023-05-14T13:09:49.444Z,101548.53
2023-05-14T13:11:58.173Z,101548.72
2023-05-14T13:14:07.034Z,101548.63
2023-05-14T13:16:17.105Z,101549.47
2023-05-14T13:18:22.686Z,101556.50
2023-05-14T13:20:27.761Z,101549.28
2023-05-14T13:22:32.622Z,101541.84
2023-05-14T13:24:37.444Z,101545.75
2023-05-14T13:26:41.883Z,101548.44
2023-05-14T13:28:46.230Z,101545.72
2023-05-14T13:31:07.502Z,101550.53
2023-05-14T13:33:13.818Z,101548.94
2023-05-14T13:35:18.418Z,101552.44
2023-05-14T13:37:23.435Z,101550.75
2023-05-14T13:39:28.342Z,101547.03
2023-05-14T13:41:35.373Z,101551.69
2023-05-14T13:43:39.903Z,101554.34
2023-05-14T13:45:46.109Z,101548.19
2023-05-14T13:47:51.610Z,101549.13
2023-05-14T13:49:58.415Z,101552.78
2023-05-14T13:52:02.385Z,101545.84
2023-05-14T13:54:06.457Z,101549.13
2023-05-14T13:56:10.155Z,101544.34
2023-05-14T13:58:14.127Z,101550.22
2023-05-14T14:00:18.344Z,101551.94
2023-05-14T14:02:22.170Z,101544.56
2023-05-14T14:04:29.250Z,101548.63
2023-05-14T14:06:34.438Z,101545.25
2023-05-14T14:08:38.381Z,101546.31
2023-05-14T14:10:42.710Z,101537.69
2023-05-14T14:12:46.326Z,101545.69
2023-05-14T14:14:49.986Z,101538.66
2023-05-14T14:16:53.797Z,101529.00
2023-05-14T14:18:57.514Z,101529.03
2023-05-14T14:21:02.028Z,101530.94
2023-05-14T14:23:07.231Z,101531.44
2023-05-14T14:25:12.939Z,101526.03
2023-05-14T14:27:16.523Z,101529.19
2023-05-14T14:29:21.168Z,101527.50
2023-05-14T14:31:24.913Z,101526.63
2023-05-14T14:33:28.622Z,101527.50
2023-05-14T14:35:33.639Z,101525.56
2023-05-14T14:37:37.189Z,101521.16
2023-05-14T14:39:42.177Z,101509.00
2023-05-14T14:41:47.994Z,101518.09
2023-05-14T14:43:51.991Z,101512.88
2023-05-14T14:45:55.921Z,101515.78
2023-05-14T14:48:24.553Z,101510.44
2023-05-14T14:50:28.713Z,101512.75
2023-05-14T14:52:32.461Z,101508.28
2023-05-14T14:54:35.974Z,101508.19
2023-05-14T14:56:41.095Z,101502.94
2023-05-14T14:58:45.545Z,101501.47
2023-05-14T15:00:49.379Z,101510.09
2023-05-14T15:02:53.130Z,101508.06
2023-05-14T15:04:57.005Z,101500.16
2023-05-14T15:07:00.990Z,101492.03
2023-05-14T15:09:04.844Z,101500.81
2023-05-14T15:11:09.695Z,101496.81
2023-05-14T15:13:14.904Z,101500.09
2023-05-14T15:15:19.002Z,101502.78
2023-05-14T15:17:22.538Z,101491.59
2023-05-14T15:19:26.532Z,101493.75
2023-05-14T15:21:30.748Z,101492.47
2023-05-14T15:23:35.121Z,101501.59
2023-05-14T15:25:39.001Z,101504.44
2023-05-14T15:27:43.723Z,101511.09
2023-05-14T15:29:49.334Z,101513.66
2023-05-14T15:31:53.896Z,101513.56
2023-05-14T15:33:57.707Z,101508.13
2023-05-14T15:36:01.658Z,101513.91
2023-05-14T15:38:05.666Z,101500.56
2023-05-14T15:40:11.041Z,101498.44
2023-05-14T15:42:15.530Z,101495.19
2023-05-14T15:44:19.430Z,101491.03
2023-05-14T15:46:25.549Z,101509.03
2023-05-14T15:48:29.851Z,101494.63
2023-05-14T15:50:33.841Z,101501.47
2023-05-14T15:52:38.077Z,101498.94
2023-05-14T15:54:42.370Z,101507.69
2023-05-14T15:56:46.746Z,101497.22
2023-05-14T15:58:50.976Z,101500.66
2023-05-14T16:00:55.281Z,101503.19
2023-05-14T16:03:01.047Z,101491.44
2023-05-14T16:05:08.238Z,101491.88
2023-05-14T16:07:13.357Z,101497.81
2023-05-14T16:09:19.357Z,101495.91
2023-05-14T16:11:24.640Z,101498.34
2023-05-14T16:13:32.773Z,101501.75
2023-05-14T16:15:40.662Z,101499.22
2023-05-14T16:17:45.840Z,101505.50
2023-05-14T16:19:51.344Z,101506.34
2023-05-14T16:21:56.745Z,101505.50
2023-05-14T16:24:01.738Z,101497.63
2023-05-14T16:26:05.456Z,101507.88
2023-05-14T16:28:12.253Z,101508.19
2023-05-14T16:30:16.776Z,101504.28
2023-05-14T16:32:21.792Z,101511.81
2023-05-14T16:34:25.681Z,101509.59
2023-05-14T16:36:31.522Z,101517.06
2023-05-14T16:38:41.443Z,101519.00
2023-05-14T16:40:53.323Z,101516.31
2023-05-14T16:42:57.963Z,101518.38
2023-05-14T16:45:02.008Z,101509.59
2023-05-14T16:47:06.730Z,101526.69
2023-05-14T16:49:10.539Z,101519.00
2023-05-14T16:51:15.126Z,101521.91
2023-05-14T16:53:23.408Z,101522.03
2023-05-14T16:55:28.156Z,101532.56
2023-05-14T16:57:34.871Z,101531.81
2023-05-14T16:59:41.626Z,101530.97
2023-05-14T17:01:50.331Z,101536.53
2023-05-14T17:03:55.408Z,101540.25
2023-05-14T17:06:00.447Z,101540.66
2023-05-14T17:08:05.642Z,101544.63
2023-05-14T17:10:12.804Z,101550.38
2023-05-14T17:12:18.374Z,101552.50
2023-05-14T17:14:22.788Z,101556.44
2023-05-14T17:16:28.743Z,101551.22
2023-05-14T17:18:34.425Z,101552.19
2023-05-14T17:20:39.764Z,101557.72
2023-05-14T17:22:43.890Z,101560.47
2023-05-14T17:24:49.278Z,101559.50
2023-05-14T17:26:55.828Z,101561.44
2023-05-14T17:29:00.347Z,101560.13
2023-05-14T17:31:04.681Z,101562.06
2023-05-14T17:33:12.096Z,101571.84
2023-05-14T17:35:18.283Z,101581.66
2023-05-14T17:37:24.278Z,101567.38
2023-05-14T17:39:28.490Z,101561.28
2023-05-14T17:41:35.857Z,101564.94
2023-05-14T17:43:41.667Z,101571.44
2023-05-14T17:45:53.894Z,101571.81
2023-05-14T17:47:57.934Z,101574.91
2023-05-14T17:50:01.496Z,101575.28
2023-05-14T17:52:06.236Z,101575.59
2023-05-14T17:54:10.961Z,101574.94
2023-05-14T17:56:17.578Z,101578.56
2023-05-14T17:58:21.964Z,101581.31
2023-05-14T18:00:27.153Z,101582.44
2023-05-14T18:02:32.062Z,101585.22
2023-05-14T18:04:36.421Z,101582.56
2023-05-14T18:06:42.542Z,101580.84
2023-05-14T18:08:47.743Z,101589.78
2023-05-14T18:10:53.674Z,101588.25
2023-05-14T18:12:59.557Z,101589.34
2023-05-14T18:15:05.032Z,101593.88
2023-05-14T18:17:14.200Z,101602.81
2023-05-14T18:19:21.716Z,101602.94
2023-05-14T18:21:26.899Z,101608.47
2023-05-14T18:23:32.487Z,101608.66
2023-05-14T18:25:40.875Z,101611.59
2023-05-14T18:27:46.273Z,101607.31
2023-05-14T18:29:52.672Z,101613.63
2023-05-14T18:32:06.139Z,101603.13
2023-05-14T18:34:16.479Z,101615.91
2023-05-14T18:36:20.987Z,101620.56
2023-05-14T18:38:25.891Z,101612.88
2023-05-14T18:40:31.383Z,101610.28
2023-05-14T18:42:38.287Z,101619.31
2023-05-14T18:44:45.161Z,101613.97
2023-05-14T18:46:52.487Z,101619.31
2023-05-14T18:49:00.632Z,101618.56
2023-05-14T18:51:08.152Z,101635.47
2023-05-14T18:53:13.952Z,101630.25
2023-05-14T18:55:18.326Z,101633.94
2023-05-14T18:57:22.658Z,101635.00
2023-05-14T18:59:27.279Z,101635.00
2023-05-14T19:01:32.524Z,101628.06
2023-05-14T19:03:41.302Z,101627.41
2023-05-14T19:05:46.457Z,101632.63
2023-05-14T19:07:53.643Z,101631.78
2023-05-14T19:09:58.449Z,101640.72
2023-05-14T19:12:02.442Z,101640.81
2023-05-14T19:14:06.739Z,101636.63
2023-05-14T19:16:11.341Z,101637.56
2023-05-14T19:18:16.466Z,101647.38
2023-05-14T19:20:20.639Z,101646.69
2023-05-14T19:22:27.473Z,101645.25
2023-05-14T19:24:34.119Z,101650.72
2023-05-14T19:26:40.231Z,101649.03
2023-05-14T19:28:43.969Z,101657.97
2023-05-14T19:30:48.520Z,101663.47
2023-05-14T19:32:54.022Z,101668.94
2023-05-14T19:34:59.379Z,101664.75
2023-05-14T19:37:04.524Z,101675.50
2023-05-14T19:39:10.120Z,101681.00
2023-05-14T19:41:17.521Z,101682.91
2023-05-14T19:43:21.752Z,101686.59
2023-05-14T19:45:29.307Z,101676.91
2023-05-14T19:47:33.582Z,101678.63
2023-05-14T19:49:39.766Z,101684.69
2023-05-14T19:51:45.123Z,101682.22
2023-05-14T19:53:49.305Z,101681.28
2023-05-14T19:55:53.923Z,101679.56
2023-05-14T19:58:01.270Z,101694.59
2023-05-14T20:00:05.846Z,101692.03
2023-05-14T20:02:18.845Z,101693.91
2023-05-14T20:04:22.976Z,101705.47
2023-05-14T20:06:27.644Z,101702.16
2023-05-14T20:08:33.865Z,101695.34
2023-05-14T20:10:39.544Z,101701.75
2023-05-14T20:12:46.453Z,101701.81
2023-05-14T20:14:54.478Z,101720.50
2023-05-14T20:17:00.414Z,101721.72
2023-05-14T20:19:06.982Z,101719.41
2023-05-14T20:21:12.600Z,101719.63
2023-05-14T20:23:20.973Z,101722.66
2023-05-14T20:25:28.559Z,101725.63
2023-05-14T20:27:36.038Z,101727.63
2023-05-14T20:29:47.523Z,101724.19
2023-05-14T20:31:54.459Z,101726.94
2023-05-14T20:34:01.051Z,101721.72
2023-05-14T20:36:06.754Z,101730.63
2023-05-14T20:38:14.512Z,101718.34
2023-05-14T20:40:24.467Z,101728.22
2023-05-14T20:42:29.923Z,101725.81
2023-05-14T20:44:35.956Z,101732.13
2023-05-14T20:46:45.901Z,101732.31
2023-05-14T20:48:59.830Z,101744.13
2023-05-14T20:51:10.158Z,101745.34
2023-05-14T20:53:17.970Z,101752.78
2023-05-14T20:55:25.729Z,101754.88
2023-05-14T20:57:33.873Z,101754.19
2023-05-14T20:59:42.911Z,101751.78
2023-05-14T21:01:51.151Z,101751.00
2023-05-14T21:03:57.875Z,101758.28
2023-05-14T21:06:08.041Z,101761.03
2023-05-14T21:08:14.493Z,101763.91
2023-05-14T21:10:32.614Z,101772.97
2023-05-14T21:12:41.280Z,101766.09
2023-05-14T21:14:48.754Z,101775.16
2023-05-14T21:16:57.642Z,101773.53
2023-05-14T21:19:05.425Z,101784.06
2023-05-14T21:21:11.250Z,101783.28
2023-05-14T21:23:16.262Z,101786.09
2023-05-14T21:25:23.721Z,101786.09
2023-05-14T21:27:29.779Z,101791.41
2023-05-14T21:29:34.338Z,101795.84
2023-05-14T21:31:39.369Z,101793.44
2023-05-14T21:33:43.748Z,101803.31
2023-05-14T21:35:50.302Z,101799.03
2023-05-14T21:37:55.131Z,101801.00
2023-05-14T21:40:00.812Z,101801.94
2023-05-14T21:42:05.700Z,101801.09
2023-05-14T21:44:09.957Z,101803.88
2023-05-14T21:46:15.755Z,101815.44
2023-05-14T21:48:21.797Z,101812.16
2023-05-14T21:50:27.121Z,101811.44
2023-05-14T21:52:33.107Z,101816.97
2023-05-14T21:54:38.017Z,101826.78
2023-05-14T21:56:42.089Z,101825.22
2023-05-14T21:58:46.849Z,101825.38
2023-05-14T22:00:51.822Z,101830.84
2023-05-14T22:02:59.233Z,101827.53
2023-05-14T22:05:03.629Z,101830.34
2023-05-14T22:07:07.631Z,101833.16
2023-05-14T22:09:14.248Z,101833.41
2023-05-14T22:11:18.978Z,101829.19
2023-05-14T22:13:23.375Z,101824.97
2023-05-14T22:15:28.513Z,101829.63
2023-05-14T22:17:35.096Z,101834.22
2023-05-14T22:19:39.305Z,101832.69
2023-05-14T22:21:43.816Z,101840.94
2023-05-14T22:23:50.163Z,101835.78
2023-05-14T22:25:56.930Z,101837.66
2023-05-14T22:28:01.474Z,101843.84
2023-05-14T22:30:07.315Z,101845.75
2023-05-14T22:32:12.130Z,101847.59
2023-05-14T22:34:20.681Z,101846.97
2023-05-14T22:36:28.733Z,101844.50
2023-05-14T22:38:34.034Z,101843.84
2023-05-14T22:40:38.925Z,101847.56
2023-05-14T22:42:46.843Z,101847.72
2023-05-14T22:44:51.808Z,101852.31
2023-05-14T22:46:57.343Z,101846.13
2023-05-14T22:49:02.124Z,101846.19
2023-05-14T22:51:06.657Z,101846.19
2023-05-14T22:53:11.254Z,101854.16
2023-05-14T22:55:16.309Z,101852.41
2023-05-14T22:57:20.614Z,101857.84
2023-05-14T22:59:26.115Z,101848.19
2023-05-14T23:01:30.710Z,101858.00
2023-05-14T23:03:35.005Z,101849.31
2023-05-14T23:05:39.196Z,101852.19
2023-05-14T23:07:43.777Z,101857.59
2023-05-14T23:09:48.645Z,101855.03
2023-05-14T23:11:52.919Z,101848.06
2023-05-14T23:13:57.650Z,101855.16
2023-05-14T23:16:04.212Z,101861.38
2023-05-14T23:18:10.347Z,101859.59
2023-05-14T23:20:15.276Z,101871.13
2023-05-14T23:22:19.687Z,101858.78
2023-05-14T23:24:23.985Z,101865.09
2023-05-14T23:26:28.569Z,101873.09
2023-05-14T23:28:33.072Z,101874.97
2023-05-14T23:30:37.241Z,101868.78
2023-05-14T23:32:43.503Z,101865.44
2023-05-14T23:34:47.773Z,101868.13
2023-05-14T23:36:52.386Z,101868.13
2023-05-14T23:38:56.800Z,101868.19
2023-05-14T23:41:01.934Z,101873.56
2023-05-14T23:43:06.070Z,101867.47
2023-05-14T23:45:11.368Z,101871.03
2023-05-14T23:47:15.882Z,101871.13
2023-05-14T23:49:21.625Z,101872.03
2023-05-14T23:51:26.032Z,101872.09